sensor_id;sensor_type;location;lat;lon;timestamp;P1;durP1;ratioP1;P2;durP2;ratioP2
69226;SDS011;56334;52.398;7.552;2023-03-01T00:01:23;12.30;;;4.38;;
69226;SDS011;56334;52.398;7.552;2023-03-01T00:03:49;11.68;;;4.10;;
69226;SDS011;56334;52.398;7.552;2023-03-01T00:06:15;12.40;;;4.97;;
69226;SDS011;56334;52.398;7.552;2023-03-01T00:08:41;13.48;;;5.00;;
69226;SDS011;56334;52.398;7.552;2023-03-01T00:13:43;13.60;;;4.60;;
69226;SDS011;56334;52.398;7.552;2023-03-01T00:16:11;11.90;;;3.88;;
69226;SDS011;56334;52.398;7.552;2023-03-01T00:18:37;13.82;;;4.82;;
69226;SDS011;56334;52.398;7.552;2023-03-01T00:21:04;14.02;;;4.82;;
69226;SDS011;56334;52.398;7.552;2023-03-01T00:23:30;12.65;;;4.43;;
69226;SDS011;56334;52.398;7.552;2023-03-01T00:25:56;11.73;;;3.55;;
69226;SDS011;56334;52.398;7.552;2023-03-01T00:28:22;15.55;;;5.10;;
69226;SDS011;56334;52.398;7.552;2023-03-01T00:30:48;12.13;;;4.40;;
69226;SDS011;56334;52.398;7.552;2023-03-01T00:33:14;10.75;;;3.95;;
69226;SDS011;56334;52.398;7.552;2023-03-01T00:35:40;12.00;;;4.47;;
69226;SDS011;56334;52.398;7.552;2023-03-01T00:38:06;14.18;;;4.97;;
69226;SDS011;56334;52.398;7.552;2023-03-01T00:40:34;12.60;;;4.35;;
69226;SDS011;56334;52.398;7.552;2023-03-01T00:43:00;12.23;;;4.72;;
69226;SDS011;56334;52.398;7.552;2023-03-01T00:45:26;11.90;;;4.20;;
69226;SDS011;56334;52.398;7.552;2023-03-01T00:47:53;13.40;;;4.80;;
69226;SDS011;56334;52.398;7.552;2023-03-01T00:50:19;12.45;;;4.63;;
69226;SDS011;56334;52.398;7.552;2023-03-01T00:52:45;13.80;;;4.55;;
69226;SDS011;56334;52.398;7.552;2023-03-01T00:55:12;11.80;;;4.15;;
69226;SDS011;56334;52.398;7.552;2023-03-01T00:57:38;12.65;;;4.38;;
69226;SDS011;56334;52.398;7.552;2023-03-01T01:00:05;12.00;;;4.25;;
69226;SDS011;56334;52.398;7.552;2023-03-01T01:02:32;14.77;;;4.72;;
69226;SDS011;56334;52.398;7.552;2023-03-01T01:04:58;13.45;;;4.95;;
69226;SDS011;56334;52.398;7.552;2023-03-01T01:07:26;11.65;;;4.13;;
69226;SDS011;56334;52.398;7.552;2023-03-01T01:09:52;12.27;;;4.05;;
69226;SDS011;56334;52.398;7.552;2023-03-01T01:12:18;11.35;;;4.22;;
69226;SDS011;56334;52.398;7.552;2023-03-01T01:14:45;14.50;;;4.88;;
69226;SDS011;56334;52.398;7.552;2023-03-01T01:17:12;13.38;;;4.60;;
69226;SDS011;56334;52.398;7.552;2023-03-01T01:19:38;12.70;;;4.45;;
69226;SDS011;56334;52.398;7.552;2023-03-01T01:22:04;10.30;;;4.10;;
69226;SDS011;56334;52.398;7.552;2023-03-01T01:24:30;12.05;;;4.30;;
69226;SDS011;56334;52.398;7.552;2023-03-01T01:26:56;12.30;;;4.45;;
69226;SDS011;56334;52.398;7.552;2023-03-01T01:29:23;10.65;;;3.63;;
69226;SDS011;56334;52.398;7.552;2023-03-01T01:31:49;11.20;;;3.78;;
69226;SDS011;56334;52.398;7.552;2023-03-01T01:34:16;12.73;;;4.20;;
69226;SDS011;56334;52.398;7.552;2023-03-01T01:36:42;10.63;;;4.20;;
69226;SDS011;56334;52.398;7.552;2023-03-01T01:39:09;11.05;;;4.38;;
69226;SDS011;56334;52.398;7.552;2023-03-01T01:41:39;11.23;;;4.38;;
69226;SDS011;56334;52.398;7.552;2023-03-01T01:44:26;12.07;;;3.88;;
69226;SDS011;56334;52.398;7.552;2023-03-01T01:47:06;12.02;;;4.47;;
69226;SDS011;56334;52.398;7.552;2023-03-01T01:52:36;14.35;;;5.10;;
69226;SDS011;56334;52.398;7.552;2023-03-01T01:58:01;14.80;;;4.57;;
69226;SDS011;56334;52.398;7.552;2023-03-01T02:00:20;12.68;;;4.28;;
69226;SDS011;56334;52.398;7.552;2023-03-01T02:02:48;11.43;;;4.32;;
69226;SDS011;56334;52.398;7.552;2023-03-01T02:07:52;13.20;;;4.75;;
69226;SDS011;56334;52.398;7.552;2023-03-01T02:10:18;13.15;;;4.68;;
69226;SDS011;56334;52.398;7.552;2023-03-01T02:12:45;12.05;;;4.25;;
69226;SDS011;56334;52.398;7.552;2023-03-01T02:15:11;16.55;;;5.32;;
69226;SDS011;56334;52.398;7.552;2023-03-01T02:17:37;12.90;;;4.70;;
69226;SDS011;56334;52.398;7.552;2023-03-01T02:22:32;12.23;;;4.82;;
69226;SDS011;56334;52.398;7.552;2023-03-01T02:25:07;15.05;;;5.05;;
69226;SDS011;56334;52.398;7.552;2023-03-01T02:27:42;14.38;;;5.43;;
69226;SDS011;56334;52.398;7.552;2023-03-01T02:30:10;13.55;;;5.28;;
69226;SDS011;56334;52.398;7.552;2023-03-01T02:32:40;13.18;;;4.72;;
69226;SDS011;56334;52.398;7.552;2023-03-01T02:35:08;13.02;;;4.35;;
69226;SDS011;56334;52.398;7.552;2023-03-01T02:37:35;14.13;;;5.07;;
69226;SDS011;56334;52.398;7.552;2023-03-01T02:40:03;15.70;;;5.50;;
69226;SDS011;56334;52.398;7.552;2023-03-01T02:42:33;13.68;;;5.30;;
69226;SDS011;56334;52.398;7.552;2023-03-01T02:45:02;14.55;;;4.88;;
69226;SDS011;56334;52.398;7.552;2023-03-01T02:47:28;15.43;;;5.65;;
69226;SDS011;56334;52.398;7.552;2023-03-01T02:49:54;14.02;;;5.07;;
69226;SDS011;56334;52.398;7.552;2023-03-01T02:52:27;13.63;;;5.47;;
69226;SDS011;56334;52.398;7.552;2023-03-01T02:57:27;14.57;;;5.80;;
69226;SDS011;56334;52.398;7.552;2023-03-01T02:59:57;16.75;;;5.30;;
69226;SDS011;56334;52.398;7.552;2023-03-01T03:02:26;14.50;;;5.72;;
69226;SDS011;56334;52.398;7.552;2023-03-01T03:05:10;13.68;;;5.80;;
69226;SDS011;56334;52.398;7.552;2023-03-01T03:07:37;16.38;;;5.82;;
69226;SDS011;56334;52.398;7.552;2023-03-01T03:10:03;17.75;;;7.00;;
69226;SDS011;56334;52.398;7.552;2023-03-01T03:12:30;16.02;;;6.50;;
69226;SDS011;56334;52.398;7.552;2023-03-01T03:14:56;14.88;;;5.30;;
69226;SDS011;56334;52.398;7.552;2023-03-01T03:17:22;16.80;;;6.00;;
69226;SDS011;56334;52.398;7.552;2023-03-01T03:19:48;17.33;;;6.00;;
69226;SDS011;56334;52.398;7.552;2023-03-01T03:22:15;17.30;;;6.63;;
69226;SDS011;56334;52.398;7.552;2023-03-01T03:24:41;16.20;;;6.53;;
69226;SDS011;56334;52.398;7.552;2023-03-01T03:27:07;14.15;;;5.47;;
69226;SDS011;56334;52.398;7.552;2023-03-01T03:29:33;16.70;;;6.75;;
69226;SDS011;56334;52.398;7.552;2023-03-01T03:31:59;15.85;;;6.32;;
69226;SDS011;56334;52.398;7.552;2023-03-01T03:34:25;16.05;;;5.55;;
69226;SDS011;56334;52.398;7.552;2023-03-01T03:36:54;14.40;;;6.03;;
69226;SDS011;56334;52.398;7.552;2023-03-01T03:39:25;16.45;;;6.40;;
69226;SDS011;56334;52.398;7.552;2023-03-01T03:41:51;16.70;;;5.88;;
69226;SDS011;56334;52.398;7.552;2023-03-01T03:44:17;17.88;;;6.60;;
69226;SDS011;56334;52.398;7.552;2023-03-01T03:46:43;18.27;;;5.95;;
69226;SDS011;56334;52.398;7.552;2023-03-01T03:49:10;16.98;;;6.45;;
69226;SDS011;56334;52.398;7.552;2023-03-01T03:51:37;16.20;;;6.15;;
69226;SDS011;56334;52.398;7.552;2023-03-01T03:54:03;14.20;;;5.65;;
69226;SDS011;56334;52.398;7.552;2023-03-01T03:56:29;17.33;;;6.15;;
69226;SDS011;56334;52.398;7.552;2023-03-01T03:58:55;15.27;;;6.43;;
69226;SDS011;56334;52.398;7.552;2023-03-01T04:01:21;14.27;;;5.25;;
69226;SDS011;56334;52.398;7.552;2023-03-01T04:03:48;14.85;;;5.57;;
69226;SDS011;56334;52.398;7.552;2023-03-01T04:06:19;16.33;;;5.68;;
69226;SDS011;56334;52.398;7.552;2023-03-01T04:08:45;16.30;;;6.00;;
69226;SDS011;56334;52.398;7.552;2023-03-01T04:11:11;16.33;;;6.68;;
69226;SDS011;56334;52.398;7.552;2023-03-01T04:13:54;15.52;;;6.05;;
69226;SDS011;56334;52.398;7.552;2023-03-01T04:16:21;13.93;;;5.30;;
69226;SDS011;56334;52.398;7.552;2023-03-01T04:18:47;16.80;;;6.22;;
69226;SDS011;56334;52.398;7.552;2023-03-01T04:21:14;12.38;;;4.53;;
69226;SDS011;56334;52.398;7.552;2023-03-01T04:23:40;16.60;;;5.50;;
69226;SDS011;56334;52.398;7.552;2023-03-01T04:26:07;16.25;;;6.18;;
69226;SDS011;56334;52.398;7.552;2023-03-01T04:28:34;14.55;;;5.32;;
69226;SDS011;56334;52.398;7.552;2023-03-01T04:31:05;19.40;;;6.50;;
69226;SDS011;56334;52.398;7.552;2023-03-01T04:33:38;13.80;;;5.43;;
69226;SDS011;56334;52.398;7.552;2023-03-01T04:36:05;15.77;;;5.43;;
69226;SDS011;56334;52.398;7.552;2023-03-01T04:38:33;14.18;;;5.82;;
69226;SDS011;56334;52.398;7.552;2023-03-01T04:41:00;14.68;;;5.47;;
69226;SDS011;56334;52.398;7.552;2023-03-01T04:43:27;15.35;;;5.32;;
69226;SDS011;56334;52.398;7.552;2023-03-01T04:45:53;14.77;;;5.80;;
69226;SDS011;56334;52.398;7.552;2023-03-01T04:48:19;16.30;;;6.15;;
69226;SDS011;56334;52.398;7.552;2023-03-01T04:50:45;16.60;;;5.85;;
69226;SDS011;56334;52.398;7.552;2023-03-01T04:53:11;15.00;;;5.35;;
69226;SDS011;56334;52.398;7.552;2023-03-01T04:55:37;14.35;;;5.72;;
69226;SDS011;56334;52.398;7.552;2023-03-01T04:58:03;14.25;;;5.40;;
69226;SDS011;56334;52.398;7.552;2023-03-01T05:00:32;16.00;;;5.68;;
69226;SDS011;56334;52.398;7.552;2023-03-01T05:03:01;14.45;;;6.10;;
69226;SDS011;56334;52.398;7.552;2023-03-01T05:05:28;14.38;;;4.97;;
69226;SDS011;56334;52.398;7.552;2023-03-01T05:07:55;14.55;;;5.75;;
69226;SDS011;56334;52.398;7.552;2023-03-01T05:10:22;13.43;;;5.75;;
69226;SDS011;56334;52.398;7.552;2023-03-01T05:12:48;16.50;;;5.90;;
69226;SDS011;56334;52.398;7.552;2023-03-01T05:15:14;14.23;;;5.30;;
69226;SDS011;56334;52.398;7.552;2023-03-01T05:17:40;13.35;;;5.28;;
69226;SDS011;56334;52.398;7.552;2023-03-01T05:20:07;14.57;;;5.35;;
69226;SDS011;56334;52.398;7.552;2023-03-01T05:22:33;15.35;;;5.63;;
69226;SDS011;56334;52.398;7.552;2023-03-01T05:25:00;14.52;;;6.22;;
69226;SDS011;56334;52.398;7.552;2023-03-01T05:27:26;16.42;;;5.30;;
69226;SDS011;56334;52.398;7.552;2023-03-01T05:29:52;15.15;;;4.97;;
69226;SDS011;56334;52.398;7.552;2023-03-01T05:32:18;16.70;;;5.75;;
69226;SDS011;56334;52.398;7.552;2023-03-01T05:34:44;14.27;;;4.90;;
69226;SDS011;56334;52.398;7.552;2023-03-01T05:37:11;16.75;;;5.50;;
69226;SDS011;56334;52.398;7.552;2023-03-01T05:39:39;15.27;;;6.43;;
69226;SDS011;56334;52.398;7.552;2023-03-01T05:42:09;14.75;;;5.03;;
69226;SDS011;56334;52.398;7.552;2023-03-01T05:44:35;14.10;;;5.88;;
69226;SDS011;56334;52.398;7.552;2023-03-01T05:47:01;15.45;;;5.88;;
69226;SDS011;56334;52.398;7.552;2023-03-01T05:49:27;17.00;;;6.00;;
69226;SDS011;56334;52.398;7.552;2023-03-01T05:51:55;19.27;;;6.88;;
69226;SDS011;56334;52.398;7.552;2023-03-01T05:54:21;15.07;;;6.03;;
69226;SDS011;56334;52.398;7.552;2023-03-01T05:56:47;16.88;;;6.82;;
69226;SDS011;56334;52.398;7.552;2023-03-01T05:59:13;18.05;;;6.45;;
69226;SDS011;56334;52.398;7.552;2023-03-01T06:01:41;16.90;;;6.70;;
69226;SDS011;56334;52.398;7.552;2023-03-01T06:04:07;16.00;;;6.38;;
69226;SDS011;56334;52.398;7.552;2023-03-01T06:06:34;16.42;;;5.80;;
69226;SDS011;56334;52.398;7.552;2023-03-01T06:09:02;20.48;;;7.53;;
69226;SDS011;56334;52.398;7.552;2023-03-01T06:11:28;15.63;;;6.45;;
69226;SDS011;56334;52.398;7.552;2023-03-01T06:13:54;21.20;;;6.90;;
69226;SDS011;56334;52.398;7.552;2023-03-01T06:16:20;16.17;;;6.28;;
69226;SDS011;56334;52.398;7.552;2023-03-01T06:18:46;16.92;;;6.80;;
69226;SDS011;56334;52.398;7.552;2023-03-01T06:21:12;16.42;;;6.90;;
69226;SDS011;56334;52.398;7.552;2023-03-01T06:23:38;17.33;;;7.20;;
69226;SDS011;56334;52.398;7.552;2023-03-01T06:26:05;17.45;;;7.10;;
69226;SDS011;56334;52.398;7.552;2023-03-01T06:28:31;17.23;;;6.93;;
69226;SDS011;56334;52.398;7.552;2023-03-01T06:30:57;18.08;;;6.22;;
69226;SDS011;56334;52.398;7.552;2023-03-01T06:33:23;16.05;;;6.60;;
69226;SDS011;56334;52.398;7.552;2023-03-01T06:35:50;14.80;;;6.68;;
69226;SDS011;56334;52.398;7.552;2023-03-01T06:38:16;18.23;;;6.85;;
69226;SDS011;56334;52.398;7.552;2023-03-01T06:40:44;15.38;;;7.05;;
69226;SDS011;56334;52.398;7.552;2023-03-01T06:43:10;21.48;;;6.78;;
69226;SDS011;56334;52.398;7.552;2023-03-01T06:45:36;16.08;;;7.18;;
69226;SDS011;56334;52.398;7.552;2023-03-01T06:48:06;17.05;;;6.32;;
69226;SDS011;56334;52.398;7.552;2023-03-01T06:50:33;18.13;;;7.60;;
69226;SDS011;56334;52.398;7.552;2023-03-01T06:52:59;14.85;;;6.63;;
69226;SDS011;56334;52.398;7.552;2023-03-01T06:55:26;16.30;;;6.68;;
69226;SDS011;56334;52.398;7.552;2023-03-01T06:57:55;16.38;;;6.82;;
69226;SDS011;56334;52.398;7.552;2023-03-01T07:00:22;15.57;;;6.90;;
69226;SDS011;56334;52.398;7.552;2023-03-01T07:02:48;18.38;;;6.82;;
69226;SDS011;56334;52.398;7.552;2023-03-01T07:05:14;16.33;;;6.60;;
69226;SDS011;56334;52.398;7.552;2023-03-01T07:07:40;16.40;;;7.00;;
69226;SDS011;56334;52.398;7.552;2023-03-01T07:10:07;20.40;;;6.85;;
69226;SDS011;56334;52.398;7.552;2023-03-01T07:12:33;16.38;;;7.10;;
69226;SDS011;56334;52.398;7.552;2023-03-01T07:14:59;19.17;;;6.57;;
69226;SDS011;56334;52.398;7.552;2023-03-01T07:17:26;18.05;;;7.07;;
69226;SDS011;56334;52.398;7.552;2023-03-01T07:19:52;18.83;;;7.75;;
69226;SDS011;56334;52.398;7.552;2023-03-01T07:22:18;17.05;;;7.45;;
69226;SDS011;56334;52.398;7.552;2023-03-01T07:24:44;19.92;;;8.32;;
69226;SDS011;56334;52.398;7.552;2023-03-01T07:27:10;17.92;;;7.28;;
69226;SDS011;56334;52.398;7.552;2023-03-01T07:29:36;21.13;;;7.63;;
69226;SDS011;56334;52.398;7.552;2023-03-01T07:32:03;17.05;;;7.65;;
69226;SDS011;56334;52.398;7.552;2023-03-01T07:34:29;16.05;;;8.13;;
69226;SDS011;56334;52.398;7.552;2023-03-01T07:36:55;17.50;;;7.35;;
69226;SDS011;56334;52.398;7.552;2023-03-01T07:39:21;17.65;;;8.25;;
69226;SDS011;56334;52.398;7.552;2023-03-01T07:41:50;18.95;;;8.57;;
69226;SDS011;56334;52.398;7.552;2023-03-01T07:44:17;19.02;;;8.05;;
69226;SDS011;56334;52.398;7.552;2023-03-01T07:46:43;19.38;;;7.78;;
69226;SDS011;56334;52.398;7.552;2023-03-01T07:49:09;20.70;;;8.93;;
69226;SDS011;56334;52.398;7.552;2023-03-01T07:51:36;19.65;;;7.10;;
69226;SDS011;56334;52.398;7.552;2023-03-01T07:54:02;20.48;;;9.15;;
69226;SDS011;56334;52.398;7.552;2023-03-01T07:56:28;18.98;;;8.80;;
69226;SDS011;56334;52.398;7.552;2023-03-01T07:58:54;16.90;;;7.55;;
69226;SDS011;56334;52.398;7.552;2023-03-01T08:01:20;18.42;;;8.35;;
69226;SDS011;56334;52.398;7.552;2023-03-01T08:03:47;23.83;;;8.65;;
69226;SDS011;56334;52.398;7.552;2023-03-01T08:06:14;19.15;;;8.27;;
69226;SDS011;56334;52.398;7.552;2023-03-01T08:08:40;22.23;;;9.07;;
69226;SDS011;56334;52.398;7.552;2023-03-01T08:11:06;19.98;;;9.10;;
69226;SDS011;56334;52.398;7.552;2023-03-01T08:13:33;18.33;;;9.05;;
69226;SDS011;56334;52.398;7.552;2023-03-01T08:16:03;19.90;;;8.65;;
69226;SDS011;56334;52.398;7.552;2023-03-01T08:18:29;22.48;;;9.93;;
69226;SDS011;56334;52.398;7.552;2023-03-01T08:20:55;19.30;;;8.90;;
69226;SDS011;56334;52.398;7.552;2023-03-01T08:23:21;17.15;;;8.10;;
69226;SDS011;56334;52.398;7.552;2023-03-01T08:25:47;22.20;;;9.70;;
69226;SDS011;56334;52.398;7.552;2023-03-01T08:28:13;16.60;;;7.57;;
69226;SDS011;56334;52.398;7.552;2023-03-01T08:30:39;20.13;;;9.65;;
69226;SDS011;56334;52.398;7.552;2023-03-01T08:33:05;18.55;;;9.10;;
69226;SDS011;56334;52.398;7.552;2023-03-01T08:35:31;18.25;;;8.63;;
69226;SDS011;56334;52.398;7.552;2023-03-01T08:37:57;17.25;;;8.80;;
69226;SDS011;56334;52.398;7.552;2023-03-01T08:40:25;21.13;;;9.25;;
69226;SDS011;56334;52.398;7.552;2023-03-01T08:42:51;18.98;;;8.52;;
69226;SDS011;56334;52.398;7.552;2023-03-01T08:45:17;17.10;;;8.63;;
69226;SDS011;56334;52.398;7.552;2023-03-01T08:47:43;18.23;;;8.40;;
69226;SDS011;56334;52.398;7.552;2023-03-01T08:50:10;15.80;;;7.57;;
69226;SDS011;56334;52.398;7.552;2023-03-01T08:52:36;18.33;;;8.93;;
69226;SDS011;56334;52.398;7.552;2023-03-01T08:55:02;15.85;;;7.85;;
69226;SDS011;56334;52.398;7.552;2023-03-01T08:57:28;16.52;;;8.00;;
69226;SDS011;56334;52.398;7.552;2023-03-01T08:59:55;20.98;;;9.38;;
69226;SDS011;56334;52.398;7.552;2023-03-01T09:02:21;19.25;;;8.45;;
69226;SDS011;56334;52.398;7.552;2023-03-01T09:04:47;17.80;;;8.30;;
69226;SDS011;56334;52.398;7.552;2023-03-01T09:07:13;14.38;;;6.80;;
69226;SDS011;56334;52.398;7.552;2023-03-01T09:09:39;15.35;;;7.60;;
69226;SDS011;56334;52.398;7.552;2023-03-01T09:12:05;18.15;;;7.35;;
69226;SDS011;56334;52.398;7.552;2023-03-01T09:14:31;19.10;;;8.02;;
69226;SDS011;56334;52.398;7.552;2023-03-01T09:16:57;15.38;;;6.60;;
69226;SDS011;56334;52.398;7.552;2023-03-01T09:19:23;16.63;;;7.50;;
69226;SDS011;56334;52.398;7.552;2023-03-01T09:21:49;17.55;;;7.35;;
69226;SDS011;56334;52.398;7.552;2023-03-01T09:24:21;16.80;;;7.40;;
69226;SDS011;56334;52.398;7.552;2023-03-01T09:26:48;15.32;;;6.55;;
69226;SDS011;56334;52.398;7.552;2023-03-01T09:29:14;15.88;;;6.22;;
69226;SDS011;56334;52.398;7.552;2023-03-01T09:31:42;21.75;;;8.20;;
69226;SDS011;56334;52.398;7.552;2023-03-01T09:34:08;13.93;;;6.53;;
69226;SDS011;56334;52.398;7.552;2023-03-01T09:36:35;15.73;;;6.50;;
69226;SDS011;56334;52.398;7.552;2023-03-01T09:39:01;14.00;;;6.13;;
69226;SDS011;56334;52.398;7.552;2023-03-01T09:41:50;14.18;;;5.78;;
69226;SDS011;56334;52.398;7.552;2023-03-01T09:44:30;12.88;;;5.38;;
69226;SDS011;56334;52.398;7.552;2023-03-01T09:46:56;15.68;;;6.10;;
69226;SDS011;56334;52.398;7.552;2023-03-01T09:49:30;13.07;;;5.53;;
69226;SDS011;56334;52.398;7.552;2023-03-01T09:51:59;13.93;;;5.80;;
69226;SDS011;56334;52.398;7.552;2023-03-01T09:54:26;13.73;;;6.13;;
69226;SDS011;56334;52.398;7.552;2023-03-01T10:02:01;14.05;;;5.85;;
69226;SDS011;56334;52.398;7.552;2023-03-01T10:04:41;13.40;;;5.38;;
69226;SDS011;56334;52.398;7.552;2023-03-01T10:09:53;13.73;;;5.28;;
69226;SDS011;56334;52.398;7.552;2023-03-01T10:12:20;11.32;;;4.78;;
69226;SDS011;56334;52.398;7.552;2023-03-01T10:14:51;13.00;;;5.22;;
69226;SDS011;56334;52.398;7.552;2023-03-01T10:19:48;12.07;;;4.90;;
69226;SDS011;56334;52.398;7.552;2023-03-01T10:22:19;11.10;;;4.40;;
69226;SDS011;56334;52.398;7.552;2023-03-01T10:24:48;9.98;;;4.25;;
69226;SDS011;56334;52.398;7.552;2023-03-01T10:27:25;11.90;;;4.20;;
69226;SDS011;56334;52.398;7.552;2023-03-01T10:32:20;10.05;;;4.18;;
69226;SDS011;56334;52.398;7.552;2023-03-01T10:34:47;10.00;;;4.07;;
69226;SDS011;56334;52.398;7.552;2023-03-01T10:37:14;11.63;;;4.35;;
69226;SDS011;56334;52.398;7.552;2023-03-01T10:42:26;10.90;;;4.25;;
69226;SDS011;56334;52.398;7.552;2023-03-01T10:44:53;12.38;;;4.35;;
69226;SDS011;56334;52.398;7.552;2023-03-01T10:47:20;11.55;;;3.80;;
69226;SDS011;56334;52.398;7.552;2023-03-01T10:52:25;10.20;;;3.58;;
69226;SDS011;56334;52.398;7.552;2023-03-01T10:55:21;10.90;;;4.00;;
69226;SDS011;56334;52.398;7.552;2023-03-01T10:57:38;11.40;;;3.67;;
69226;SDS011;56334;52.398;7.552;2023-03-01T11:00:16;10.25;;;3.53;;
69226;SDS011;56334;52.398;7.552;2023-03-01T11:02:45;11.30;;;4.03;;
69226;SDS011;56334;52.398;7.552;2023-03-01T11:07:48;9.57;;;3.42;;
69226;SDS011;56334;52.398;7.552;2023-03-01T11:10:22;11.95;;;3.97;;
69226;SDS011;56334;52.398;7.552;2023-03-01T11:15:23;12.07;;;4.65;;
69226;SDS011;56334;52.398;7.552;2023-03-01T11:17:50;9.50;;;3.58;;
69226;SDS011;56334;52.398;7.552;2023-03-01T11:25:20;11.40;;;4.22;;
69226;SDS011;56334;52.398;7.552;2023-03-01T11:27:52;10.07;;;3.63;;
69226;SDS011;56334;52.398;7.552;2023-03-01T11:30:29;10.05;;;3.72;;
69226;SDS011;56334;52.398;7.552;2023-03-01T11:33:01;10.02;;;3.85;;
69226;SDS011;56334;52.398;7.552;2023-03-01T11:35:28;9.60;;;4.03;;
69226;SDS011;56334;52.398;7.552;2023-03-01T11:45:58;7.93;;;2.50;;
69226;SDS011;56334;52.398;7.552;2023-03-01T12:09:55;9.32;;;2.60;;
69226;SDS011;56334;52.398;7.552;2023-03-01T12:30:45;8.85;;;2.60;;
69226;SDS011;56334;52.398;7.552;2023-03-01T12:39:32;6.50;;;1.77;;
69226;SDS011;56334;52.398;7.552;2023-03-01T12:44:24;9.13;;;2.55;;
69226;SDS011;56334;52.398;7.552;2023-03-01T12:52:02;10.95;;;3.53;;
69226;SDS011;56334;52.398;7.552;2023-03-01T12:54:30;7.60;;;2.55;;
69226;SDS011;56334;52.398;7.552;2023-03-01T12:56:57;8.32;;;2.78;;
69226;SDS011;56334;52.398;7.552;2023-03-01T12:59:38;7.85;;;2.70;;
69226;SDS011;56334;52.398;7.552;2023-03-01T13:04:37;8.13;;;2.42;;
69226;SDS011;56334;52.398;7.552;2023-03-01T13:09:43;9.55;;;2.60;;
69226;SDS011;56334;52.398;7.552;2023-03-01T13:14:58;10.43;;;3.13;;
69226;SDS011;56334;52.398;7.552;2023-03-01T13:17:31;7.70;;;2.67;;
69226;SDS011;56334;52.398;7.552;2023-03-01T13:19:58;9.02;;;3.17;;
69226;SDS011;56334;52.398;7.552;2023-03-01T13:22:25;8.38;;;3.10;;
69226;SDS011;56334;52.398;7.552;2023-03-01T13:25:00;8.45;;;3.20;;
69226;SDS011;56334;52.398;7.552;2023-03-01T13:27:27;8.57;;;3.10;;
69226;SDS011;56334;52.398;7.552;2023-03-01T13:29:57;11.10;;;3.28;;
69226;SDS011;56334;52.398;7.552;2023-03-01T13:32:34;9.55;;;3.20;;
69226;SDS011;56334;52.398;7.552;2023-03-01T13:37:33;9.45;;;3.10;;
69226;SDS011;56334;52.398;7.552;2023-03-01T13:40:04;8.55;;;3.00;;
69226;SDS011;56334;52.398;7.552;2023-03-01T13:44:58;11.07;;;3.67;;
69226;SDS011;56334;52.398;7.552;2023-03-01T13:58:11;10.85;;;3.53;;
69226;SDS011;56334;52.398;7.552;2023-03-01T14:01:31;9.32;;;3.60;;
69226;SDS011;56334;52.398;7.552;2023-03-01T14:03:57;10.20;;;3.53;;
69226;SDS011;56334;52.398;7.552;2023-03-01T14:06:30;10.10;;;3.72;;
69226;SDS011;56334;52.398;7.552;2023-03-01T14:09:28;8.63;;;3.42;;
69226;SDS011;56334;52.398;7.552;2023-03-01T14:12:32;9.05;;;3.17;;
69226;SDS011;56334;52.398;7.552;2023-03-01T14:20:39;8.90;;;2.90;;
69226;SDS011;56334;52.398;7.552;2023-03-01T14:23:23;8.70;;;2.97;;
69226;SDS011;56334;52.398;7.552;2023-03-01T14:26:02;9.48;;;3.10;;
69226;SDS011;56334;52.398;7.552;2023-03-01T14:28:37;8.80;;;3.10;;
69226;SDS011;56334;52.398;7.552;2023-03-01T14:31:29;11.07;;;3.58;;
69226;SDS011;56334;52.398;7.552;2023-03-01T14:33:54;9.38;;;3.08;;
69226;SDS011;56334;52.398;7.552;2023-03-01T14:36:26;8.82;;;2.92;;
69226;SDS011;56334;52.398;7.552;2023-03-01T14:39:15;9.60;;;3.28;;
69226;SDS011;56334;52.398;7.552;2023-03-01T14:41:43;9.68;;;3.50;;
69226;SDS011;56334;52.398;7.552;2023-03-01T14:44:27;8.63;;;2.97;;
69226;SDS011;56334;52.398;7.552;2023-03-01T14:46:55;8.68;;;2.95;;
69226;SDS011;56334;52.398;7.552;2023-03-01T14:49:29;9.95;;;3.50;;
69226;SDS011;56334;52.398;7.552;2023-03-01T14:54:43;9.85;;;2.88;;
69226;SDS011;56334;52.398;7.552;2023-03-01T14:57:18;8.77;;;3.00;;
69226;SDS011;56334;52.398;7.552;2023-03-01T14:59:48;8.85;;;3.45;;
69226;SDS011;56334;52.398;7.552;2023-03-01T15:02:17;7.80;;;2.88;;
69226;SDS011;56334;52.398;7.552;2023-03-01T15:04:56;12.25;;;5.05;;
69226;SDS011;56334;52.398;7.552;2023-03-01T15:07:26;12.77;;;4.40;;
69226;SDS011;56334;52.398;7.552;2023-03-01T15:09:53;8.88;;;3.03;;
69226;SDS011;56334;52.398;7.552;2023-03-01T15:12:36;8.68;;;3.22;;
69226;SDS011;56334;52.398;7.552;2023-03-01T15:15:29;9.93;;;3.67;;
69226;SDS011;56334;52.398;7.552;2023-03-01T15:18:00;10.20;;;3.25;;
69226;SDS011;56334;52.398;7.552;2023-03-01T15:20:27;9.18;;;3.30;;
69226;SDS011;56334;52.398;7.552;2023-03-01T15:22:55;8.93;;;3.17;;
69226;SDS011;56334;52.398;7.552;2023-03-01T15:25:28;10.50;;;3.45;;
69226;SDS011;56334;52.398;7.552;2023-03-01T15:27:57;10.73;;;3.50;;
69226;SDS011;56334;52.398;7.552;2023-03-01T15:30:29;8.25;;;3.13;;
69226;SDS011;56334;52.398;7.552;2023-03-01T16:27:42;9.32;;;3.85;;
69226;SDS011;56334;52.398;7.552;2023-03-01T16:30:09;10.48;;;4.40;;
69226;SDS011;56334;52.398;7.552;2023-03-01T16:32:40;8.77;;;3.65;;
69226;SDS011;56334;52.398;7.552;2023-03-01T16:35:09;9.52;;;3.65;;
69226;SDS011;56334;52.398;7.552;2023-03-01T16:37:35;8.95;;;3.97;;
69226;SDS011;56334;52.398;7.552;2023-03-01T16:42:32;9.80;;;3.88;;
69226;SDS011;56334;52.398;7.552;2023-03-01T16:44:58;10.68;;;4.55;;
69226;SDS011;56334;52.398;7.552;2023-03-01T16:47:25;10.82;;;4.40;;
69226;SDS011;56334;52.398;7.552;2023-03-01T16:49:52;10.57;;;4.10;;
69226;SDS011;56334;52.398;7.552;2023-03-01T16:52:18;9.85;;;4.05;;
69226;SDS011;56334;52.398;7.552;2023-03-01T17:23:19;29.13;;;11.95;;
69226;SDS011;56334;52.398;7.552;2023-03-01T17:25:46;32.10;;;14.80;;
69226;SDS011;56334;52.398;7.552;2023-03-01T17:28:12;24.52;;;11.30;;
69226;SDS011;56334;52.398;7.552;2023-03-01T17:30:42;43.20;;;23.60;;
69226;SDS011;56334;52.398;7.552;2023-03-01T17:33:09;20.10;;;9.40;;
69226;SDS011;56334;52.398;7.552;2023-03-01T17:35:35;15.60;;;7.90;;
69226;SDS011;56334;52.398;7.552;2023-03-01T17:38:02;13.93;;;5.07;;
69226;SDS011;56334;52.398;7.552;2023-03-01T17:40:30;13.98;;;5.90;;
69226;SDS011;56334;52.398;7.552;2023-03-01T17:42:58;10.93;;;4.60;;
69226;SDS011;56334;52.398;7.552;2023-03-01T17:45:25;12.20;;;4.65;;
69226;SDS011;56334;52.398;7.552;2023-03-01T17:50:18;18.73;;;9.68;;
69226;SDS011;56334;52.398;7.552;2023-03-01T17:52:44;20.60;;;10.63;;
69226;SDS011;56334;52.398;7.552;2023-03-01T17:55:10;21.80;;;9.82;;
69226;SDS011;56334;52.398;7.552;2023-03-01T17:57:37;21.27;;;9.82;;
69226;SDS011;56334;52.398;7.552;2023-03-01T18:00:05;17.23;;;7.30;;
69226;SDS011;56334;52.398;7.552;2023-03-01T18:04:57;15.95;;;6.90;;
69226;SDS011;56334;52.398;7.552;2023-03-01T18:07:25;17.48;;;8.18;;
69226;SDS011;56334;52.398;7.552;2023-03-01T18:09:51;17.60;;;8.30;;
69226;SDS011;56334;52.398;7.552;2023-03-01T18:12:17;19.50;;;9.45;;
69226;SDS011;56334;52.398;7.552;2023-03-01T18:14:43;22.63;;;10.38;;
69226;SDS011;56334;52.398;7.552;2023-03-01T20:50:13;20.52;;;8.30;;
69226;SDS011;56334;52.398;7.552;2023-03-01T20:52:40;21.50;;;8.50;;
69226;SDS011;56334;52.398;7.552;2023-03-01T20:55:06;23.23;;;9.35;;
69226;SDS011;56334;52.398;7.552;2023-03-01T20:57:45;22.30;;;7.88;;
69226;SDS011;56334;52.398;7.552;2023-03-01T21:00:11;23.88;;;8.98;;
69226;SDS011;56334;52.398;7.552;2023-03-01T21:02:38;23.00;;;8.30;;
69226;SDS011;56334;52.398;7.552;2023-03-01T21:05:04;22.58;;;9.30;;